Somerset, Virginia
Current Conditions -  °F | °C
As of 1:15 AM on Thursday 23 Oct 2014 (Local Time) from KGVE Reporting Station
Broken Clouds Broken Clouds  
Wind Chill: 52°   Ceiling: 7000
Heat Index: 52°   Visibility: 10mi
Dew Point: 40°   Wind: 8mph
Humidity: 65%   Direction: 310°NW
Pressure: 29.96"   Gusts: NA
Location:  38.21°N, 78.22°W
Report Text: KGVE 230515Z AUTO 31007KT 10SM BKN070 11/05 A2996 RMK AO1 T01100047
Loading
Personal Weather Stations






























Interactive Weather Map
Tropical Storm Tracking
New forecast layout! Learn more

10-Day Weather Forecast

Advertisements
Track Severe Weather on mobile